Main page
METAR-TAF:

METAR-TAF

Airports :

Qurghonteppa International Airport

Qurghonteppa, Tajikistan

latitude: 37-51-44N, longitude: 068-51-46E, elevation: 449 m

Current weather observation

The report was made 29 minutes ago, at 22:00 UTC
Wind 4 kt from the North
Temperature 2°C
Humidity 100%
Pressure 1016 hPa
Visibility: 3600 m
Few clouds at a height of 18000 ft
mist

METAR: UTDT 202200Z 01002MPS 3600 BR FEW180 02/02 Q1016 R35/////// RMK QFE722/0963

Time: 03:29 (22:29 UTC)

Forecast

The report was made 1 hour and 29 minutes ago, at 21:00 UTC
Forecast valid from 20 at 22 UTC to 21 at 07 UTC
Wind 4 kt from variable directions
Visibility: 6000 m
Few clouds at a height of 6600 ft
Scattered clouds at a height of 13000 ft
Temporary
from 20 at 22 UTC to 21 at 07 UTC
Visibility: 3100 m
mist

TAF: UTDT 202100Z 2022/2107 VRB02MPS 6000 FEW066 SCT130 TEMPO 2022/2107 3100 BR

Weather observations and forecasts of more than 4000 airports (METAR and TAF reports).

The available stations are represented by yellow and red dots on the map.

Hover mouse over dot to see the name of the station.

Then click to see weather observations and forecasts.

To change the map : click on the green buttons with a black cross to zoom in, on the green button with a dash to zoom out, or on the green arrows for adjacent maps.


METAR-TAF: